Time;durP1;ratioP1;P1;durP2;ratioP2;P2;SDS_P1;SDS_P2;PMS_P1;PMS_P2;Temp;Humidity;BMP_temperature;BMP_pressure;BME280_temperature;BME280_humidity;BME280_pressure;Samples;Min_cycle;Max_cycle;Signal;HPM_P1;HPM_P2
2024/02/17 00:01:06;;;;;;;43.55;25.55;;;;;;;7.12;100.00;101086.78;5111332;28;20081;-48
2024/02/17 00:03:34;;;;;;;43.97;26.80;;;;;;;7.19;100.00;101087.47;5111226;28;20051;-49
2024/02/17 00:06:03;;;;;;;43.17;25.13;;;;;;;7.14;100.00;101084.09;5111675;28;20408;-49
2024/02/17 00:08:31;;;;;;;40.65;24.95;;;;;;;7.18;100.00;101076.00;5111490;28;20062;-49
2024/02/17 00:11:00;;;;;;;44.85;27.73;;;;;;;7.31;100.00;101076.44;5111602;28;20040;-50
2024/02/17 00:13:28;;;;;;;44.33;26.83;;;;;;;7.38;100.00;101077.13;5111544;28;20047;-52
2024/02/17 00:15:59;;;;;;;47.40;26.05;;;;;;;7.45;100.00;101073.34;5111281;28;20075;-46
2024/02/17 00:18:28;;;;;;;45.03;26.83;;;;;;;7.37;100.00;101070.06;5109570;28;20048;-50
2024/02/17 00:21:03;;;;;;;41.92;25.83;;;;;;;7.37;100.00;101076.25;5111302;28;20123;-50
2024/02/17 00:23:34;;;;;;;45.10;25.77;;;;;;;7.34;100.00;101076.38;5111227;28;20052;-50
2024/02/17 00:26:06;;;;;;;44.25;26.05;;;;;;;7.12;100.00;101075.31;5111290;28;20051;-49
2024/02/17 00:28:34;;;;;;;42.03;25.15;;;;;;;7.21;100.00;101082.97;5111001;28;20048;-48
2024/02/17 00:31:04;;;;;;;42.67;25.42;;;;;;;7.04;100.00;101082.66;5111274;28;20116;-49
2024/02/17 00:33:33;;;;;;;45.03;26.25;;;;;;;7.17;100.00;101076.91;5110963;28;20101;-49
2024/02/17 00:36:04;;;;;;;42.30;25.90;;;;;;;7.05;100.00;101069.38;5111215;28;20050;-50
2024/02/17 00:38:35;;;;;;;46.42;27.33;;;;;;;7.12;100.00;101070.88;5111148;28;20050;-50
2024/02/17 00:41:07;;;;;;;46.25;25.95;;;;;;;7.02;100.00;101076.53;5111220;28;20054;-49
2024/02/17 00:43:35;;;;;;;46.90;27.08;;;;;;;6.99;100.00;101079.31;5110937;28;20459;-48
2024/02/17 00:46:05;;;;;;;46.80;27.08;;;;;;;7.11;100.00;101077.09;5109794;28;20062;-50
2024/02/17 00:48:35;;;;;;;48.15;27.63;;;;;;;7.18;100.00;101080.44;5111142;28;20451;-49
2024/02/17 00:51:04;;;;;;;44.88;27.38;;;;;;;6.96;100.00;101076.75;5111244;28;20054;-50
2024/02/17 00:53:42;;;;;;;49.85;27.35;;;;;;;6.96;100.00;101074.09;5105498;28;20058;-48
2024/02/17 00:56:14;;;;;;;47.03;27.42;;;;;;;6.83;100.00;101079.78;5089360;28;20123;-49
2024/02/17 00:58:42;;;;;;;47.00;27.33;;;;;;;6.97;100.00;101076.69;5090481;28;20059;-50
2024/02/17 01:01:12;;;;;;;46.03;28.02;;;;;;;6.89;100.00;101073.44;5090773;28;20048;-48
2024/02/17 01:03:54;;;;;;;46.80;26.27;;;;;;;6.76;100.00;101075.59;5089947;28;20052;-51
2024/02/17 01:06:24;;;;;;;52.45;27.83;;;;;;;6.67;100.00;101077.69;5090180;28;20072;-50
2024/02/17 01:08:55;;;;;;;46.80;27.90;;;;;;;6.56;100.00;101070.03;5089939;28;20420;-49
2024/02/17 01:11:24;;;;;;;48.50;26.25;;;;;;;6.66;100.00;101078.56;5090185;28;20044;-51
2024/02/17 01:13:52;;;;;;;44.40;26.52;;;;;;;6.32;100.00;101075.16;5090361;28;20078;-47
2024/02/17 01:16:25;;;;;;;43.17;25.80;;;;;;;6.43;100.00;101072.19;5090392;28;20048;-49
2024/02/17 01:18:54;;;;;;;44.38;25.85;;;;;;;6.63;100.00;101076.00;5090167;28;20390;-49
2024/02/17 01:21:24;;;;;;;45.75;27.02;;;;;;;6.75;100.00;101063.25;5089965;28;20050;-49
2024/02/17 01:23:53;;;;;;;47.65;26.77;;;;;;;6.59;100.00;101069.94;5090309;28;20074;-49
2024/02/17 01:26:21;;;;;;;44.55;26.75;;;;;;;6.60;100.00;101066.38;5090419;28;20075;-52
2024/02/17 01:28:50;;;;;;;43.03;26.83;;;;;;;6.66;100.00;101068.84;5090280;28;20385;-49
2024/02/17 01:31:22;;;;;;;43.75;26.38;;;;;;;6.73;100.00;101073.03;5092365;28;20055;-49
2024/02/17 01:33:52;;;;;;;48.90;28.10;;;;;;;6.76;100.00;101072.09;5094285;28;20040;-48
2024/02/17 01:36:21;;;;;;;46.78;27.33;;;;;;;6.81;100.00;101081.63;5093955;28;20131;-49
2024/02/17 01:38:50;;;;;;;44.45;26.33;;;;;;;6.59;100.00;101070.81;5094003;28;20128;-48
2024/02/17 01:41:18;;;;;;;45.25;26.48;;;;;;;6.62;100.00;101075.16;5094084;28;20044;-47
2024/02/17 01:43:50;;;;;;;46.65;26.40;;;;;;;6.27;100.00;101069.16;5094163;28;20044;-49
2024/02/17 01:46:21;;;;;;;47.25;25.90;;;;;;;6.40;100.00;101067.00;5093706;28;20044;-48
2024/02/17 01:48:51;;;;;;;50.65;28.08;;;;;;;6.56;100.00;101070.94;5093658;28;20070;-51
2024/02/17 01:51:20;;;;;;;48.10;26.33;;;;;;;6.48;100.00;101064.13;5093982;28;20101;-51
2024/02/17 01:53:50;;;;;;;43.83;27.25;;;;;;;6.41;100.00;101068.72;5094264;28;20056;-54
2024/02/17 01:56:20;;;;;;;43.63;25.60;;;;;;;6.43;100.00;101069.53;5093765;28;20546;-49
2024/02/17 01:58:52;;;;;;;45.50;26.60;;;;;;;6.15;100.00;101073.91;5093450;28;20050;-50
2024/02/17 02:01:21;;;;;;;45.35;26.27;;;;;;;5.96;100.00;101073.56;5093464;28;20047;-49
2024/02/17 02:03:49;;;;;;;46.03;25.63;;;;;;;5.70;100.00;101079.56;5093228;28;20056;-50
2024/02/17 02:06:23;;;;;;;44.55;27.20;;;;;;;5.73;100.00;101077.69;5093003;28;20048;-46
2024/02/17 02:08:52;;;;;;;45.75;25.02;;;;;;;5.82;100.00;101086.31;5093088;28;20093;-51
2024/02/17 02:11:22;;;;;;;43.45;24.98;;;;;;;5.99;100.00;101077.03;5093218;28;20048;-51
2024/02/17 02:13:51;;;;;;;41.22;23.63;;;;;;;5.86;100.00;101080.00;5093027;28;20055;-49
2024/02/17 02:16:19;;;;;;;43.88;24.35;;;;;;;5.73;100.00;101077.69;5093171;28;20072;-51
2024/02/17 02:18:48;;;;;;;45.00;24.67;;;;;;;5.65;100.00;101078.81;5091924;28;20374;-48
2024/02/17 02:21:16;;;;;;;39.88;24.65;;;;;;;5.83;100.00;101075.66;5091540;28;20138;-51
2024/02/17 02:23:48;;;;;;;44.10;24.60;;;;;;;5.81;100.00;101081.91;5093085;28;20044;-50
2024/02/17 02:26:18;;;;;;;42.00;24.10;;;;;;;5.86;100.00;101085.28;5093067;28;20393;-51
2024/02/17 02:28:46;;;;;;;42.15;23.90;;;;;;;5.92;100.00;101078.09;5092789;28;20048;-52
2024/02/17 02:31:15;;;;;;;39.85;23.73;;;;;;;5.99;100.00;101079.66;5091169;28;20382;-50
2024/02/17 02:33:47;;;;;;;40.38;23.92;;;;;;;5.74;100.00;101074.13;5091362;28;20626;-49
2024/02/17 02:36:20;;;;;;;41.30;23.05;;;;;;;5.77;100.00;101080.25;5092487;28;20089;-48
2024/02/17 02:38:52;;;;;;;37.00;23.53;;;;;;;5.61;100.00;101075.38;5092569;28;20048;-49
2024/02/17 02:41:24;;;;;;;44.78;24.83;;;;;;;5.77;100.00;101069.66;5092108;28;20490;-49
2024/02/17 02:44:00;;;;;;;41.75;23.67;;;;;;;6.00;100.00;101067.28;5090911;28;20546;-49
2024/02/17 02:46:32;;;;;;;38.75;23.67;;;;;;;5.96;100.00;101068.28;5092530;28;20131;-51
2024/02/17 02:49:00;;;;;;;38.85;22.23;;;;;;;5.95;100.00;101066.53;5092508;28;20048;-51
2024/02/17 02:51:32;;;;;;;40.28;22.17;;;;;;;5.97;100.00;101070.00;5092072;28;20082;-47
2024/02/17 02:54:00;;;;;;;40.90;23.20;;;;;;;5.88;100.00;101063.16;5092209;28;20556;-50
2024/02/17 02:56:30;;;;;;;39.03;23.08;;;;;;;5.85;100.00;101065.91;5092140;28;20044;-50
2024/02/17 02:58:58;;;;;;;40.63;23.90;;;;;;;5.81;100.00;101074.84;5092285;28;20131;-49
2024/02/17 03:01:27;;;;;;;36.78;21.92;;;;;;;5.91;100.00;101065.78;5092087;28;20083;-51
2024/02/17 03:03:56;;;;;;;36.83;22.27;;;;;;;5.91;100.00;101064.91;5090264;28;20052;-49
2024/02/17 03:06:24;;;;;;;38.17;22.17;;;;;;;5.86;100.00;101066.75;5092199;28;20055;-49
2024/02/17 03:08:53;;;;;;;40.35;23.48;;;;;;;5.77;100.00;101073.19;5092137;28;20131;-51
2024/02/17 03:11:22;;;;;;;40.47;22.38;;;;;;;5.64;100.00;101072.66;5092454;28;20048;-50
2024/02/17 03:13:52;;;;;;;37.47;22.85;;;;;;;5.78;100.00;101071.38;5094859;28;20513;-51
2024/02/17 03:16:24;;;;;;;40.13;23.27;;;;;;;5.84;100.00;101071.25;5091757;28;20040;-48
2024/02/17 03:18:53;;;;;;;36.20;22.40;;;;;;;5.89;100.00;101078.16;5091587;28;20044;-49
2024/02/17 03:21:22;;;;;;;42.05;23.83;;;;;;;5.99;100.00;101081.44;5091939;28;20054;-49
2024/02/17 03:23:51;;;;;;;37.22;22.90;;;;;;;6.06;100.00;101079.47;5091583;28;20044;-50
2024/02/17 03:26:21;;;;;;;39.90;23.13;;;;;;;6.01;100.00;101079.63;5090289;28;20115;-49
2024/02/17 03:28:49;;;;;;;40.17;22.35;;;;;;;5.98;100.00;101079.69;5091470;28;20052;-49
2024/02/17 03:31:19;;;;;;;34.88;22.08;;;;;;;5.80;100.00;101082.84;5091238;28;20051;-48
2024/02/17 03:33:51;;;;;;;41.60;22.73;;;;;;;5.56;100.00;101087.84;5091430;28;20520;-48
2024/02/17 03:36:20;;;;;;;35.65;21.83;;;;;;;5.64;100.00;101077.06;5092030;28;20458;-50
2024/02/17 03:38:52;;;;;;;35.08;21.67;;;;;;;5.77;100.00;101094.34;5091255;28;20044;-49
2024/02/17 03:41:20;;;;;;;38.08;22.73;;;;;;;5.83;100.00;101088.03;5091343;28;20432;-49
2024/02/17 03:43:51;;;;;;;38.95;22.35;;;;;;;5.84;100.00;101089.78;5091583;28;20048;-47
2024/02/17 03:46:21;;;;;;;37.97;21.80;;;;;;;5.87;100.00;101094.97;5091335;28;20040;-49
2024/02/17 03:48:54;;;;;;;35.50;21.35;;;;;;;5.87;100.00;101094.97;5091094;28;20088;-51
2024/02/17 03:51:23;;;;;;;40.03;22.75;;;;;;;5.73;100.00;101098.00;5090846;28;20390;-49
2024/02/17 03:53:55;;;;;;;39.22;22.85;;;;;;;5.67;100.00;101098.16;5088939;28;20055;-47
2024/02/17 03:56:23;;;;;;;38.13;22.45;;;;;;;5.68;100.00;101094.59;5091394;28;20044;-49
2024/02/17 03:58:53;;;;;;;36.80;21.77;;;;;;;5.69;100.00;101106.91;5091110;28;20366;-49
2024/02/17 04:01:23;;;;;;;40.30;23.38;;;;;;;5.79;100.00;101104.91;5090778;28;20512;-50
2024/02/17 04:03:54;;;;;;;38.83;21.83;;;;;;;5.84;100.00;101103.00;5090804;28;20524;-49
2024/02/17 04:06:23;;;;;;;39.53;22.70;;;;;;;5.77;100.00;101112.03;5090719;28;20571;-51
2024/02/17 04:08:51;;;;;;;38.20;21.85;;;;;;;5.70;100.00;101109.56;5090675;28;20083;-50
2024/02/17 04:11:20;;;;;;;39.35;22.70;;;;;;;5.74;100.00;101100.59;5091074;28;20103;-51
2024/02/17 04:13:51;;;;;;;39.90;22.33;;;;;;;5.77;100.00;101102.28;5091013;28;20066;-47
2024/02/17 04:16:26;;;;;;;35.92;21.80;;;;;;;5.74;100.00;101108.56;5091261;28;20043;-49
2024/02/17 04:18:57;;;;;;;38.88;22.48;;;;;;;5.78;100.00;101098.72;5090822;28;20091;-49
2024/02/17 04:21:29;;;;;;;41.50;22.77;;;;;;;5.85;100.00;101102.09;5090511;28;20040;-49
2024/02/17 04:23:57;;;;;;;40.40;22.83;;;;;;;5.86;100.00;101103.81;5090560;28;20558;-50
2024/02/17 04:26:26;;;;;;;39.22;22.60;;;;;;;5.81;100.00;101097.81;5090470;28;20135;-50
2024/02/17 04:28:55;;;;;;;35.90;22.33;;;;;;;5.82;100.00;101102.19;5072360;28;20088;-49
2024/02/17 04:31:24;;;;;;;39.47;22.02;;;;;;;5.73;100.00;101113.88;5090313;28;20062;-48
2024/02/17 04:33:56;;;;;;;39.40;22.33;;;;;;;5.66;100.00;101110.53;5090552;28;20051;-48
2024/02/17 04:36:26;;;;;;;37.67;22.10;;;;;;;5.62;100.00;101111.53;5089905;28;20516;-51
2024/02/17 04:39:04;;;;;;;40.05;22.60;;;;;;;5.69;100.00;101118.41;5090658;28;20075;-48
2024/02/17 04:41:33;;;;;;;36.17;22.00;;;;;;;5.64;100.00;101109.69;5090573;28;20048;-48
2024/02/17 04:44:01;;;;;;;36.53;22.00;;;;;;;5.49;100.00;101111.88;5090512;28;20113;-50
2024/02/17 04:46:36;;;;;;;37.72;22.60;;;;;;;5.50;100.00;101117.16;5090518;28;20044;-49
2024/02/17 04:49:04;;;;;;;41.97;23.30;;;;;;;5.42;100.00;101114.69;5092175;28;20138;-51
2024/02/17 04:51:33;;;;;;;37.53;22.63;;;;;;;5.53;100.00;101117.06;5092374;28;20048;-51
2024/02/17 04:54:03;;;;;;;37.85;23.48;;;;;;;5.59;100.00;101121.31;5090474;28;20071;-51
2024/02/17 04:56:33;;;;;;;41.92;23.30;;;;;;;5.51;100.00;101118.88;5090406;28;20052;-49
2024/02/17 04:59:01;;;;;;;40.10;24.55;;;;;;;5.40;100.00;101121.81;5090677;28;20048;-49
2024/02/17 05:01:31;;;;;;;41.47;23.40;;;;;;;5.43;100.00;101120.84;5090455;28;20503;-50
2024/02/17 05:04:05;;;;;;;39.63;23.35;;;;;;;5.23;100.00;101131.06;5090503;28;20094;-49
2024/02/17 05:06:34;;;;;;;38.72;22.40;;;;;;;5.12;100.00;101132.19;5094311;28;20401;-51
2024/02/17 05:09:12;;;;;;;42.88;24.05;;;;;;;5.26;100.00;101129.19;5094727;28;20044;-51
2024/02/17 05:11:43;;;;;;;44.53;25.25;;;;;;;5.09;100.00;101129.59;5095320;28;20052;-51
2024/02/17 05:14:15;;;;;;;40.03;23.08;;;;;;;5.15;100.00;101126.81;5093906;28;20055;-50
2024/02/17 05:16:46;;;;;;;40.53;23.53;;;;;;;5.23;100.00;101125.75;5097786;28;20044;-50
2024/02/17 05:19:16;;;;;;;41.58;23.65;;;;;;;5.34;100.00;101123.72;5097807;28;20052;-51
2024/02/17 05:21:47;;;;;;;41.70;23.80;;;;;;;5.17;100.00;101125.00;5095150;28;20108;-47
2024/02/17 05:24:18;;;;;;;43.22;24.30;;;;;;;4.96;100.00;101125.50;5097029;28;20068;-51
2024/02/17 05:26:47;;;;;;;43.55;24.92;;;;;;;5.12;100.00;101118.97;5095999;28;20044;-48
2024/02/17 05:29:16;;;;;;;42.80;23.77;;;;;;;5.09;100.00;101126.94;5093788;28;20044;-50
2024/02/17 05:31:44;;;;;;;45.08;24.85;;;;;;;4.98;100.00;101126.34;5093464;28;20412;-50
2024/02/17 05:34:19;;;;;;;41.40;24.40;;;;;;;5.08;100.00;101135.78;5093462;28;20048;-49
2024/02/17 05:36:50;;;;;;;38.20;23.65;;;;;;;5.24;100.00;101127.50;5093933;28;20515;-52
2024/02/17 05:39:22;;;;;;;39.65;23.38;;;;;;;5.30;100.00;101132.63;5093653;28;20059;-49
2024/02/17 05:41:51;;;;;;;41.05;23.67;;;;;;;5.31;100.00;101132.59;5093259;28;20044;-50
2024/02/17 05:44:22;;;;;;;43.95;26.17;;;;;;;5.20;100.00;101137.25;5093468;28;20469;-48
2024/02/17 05:46:53;;;;;;;41.15;24.30;;;;;;;5.16;100.00;101138.25;5091949;28;20047;-49
2024/02/17 05:49:23;;;;;;;45.90;25.35;;;;;;;4.98;100.00;101138.69;5093741;28;20055;-51
2024/02/17 05:51:52;;;;;;;41.58;24.48;;;;;;;5.01;100.00;101136.81;5093402;28;20472;-49
2024/02/17 05:54:25;;;;;;;46.05;25.30;;;;;;;5.21;100.00;101143.41;5093526;28;20070;-49
2024/02/17 05:56:53;;;;;;;48.03;26.05;;;;;;;5.23;100.00;101145.16;5093174;28;20048;-49
2024/02/17 05:59:22;;;;;;;41.35;24.08;;;;;;;5.24;100.00;101153.94;5091958;28;20481;-50
2024/02/17 06:01:50;;;;;;;45.30;25.13;;;;;;;5.30;100.00;101159.06;5093193;28;20826;-50
2024/02/17 06:04:20;;;;;;;44.03;24.73;;;;;;;5.25;100.00;101160.97;5093005;28;20143;-48
2024/02/17 06:06:56;;;;;;;43.47;25.73;;;;;;;5.31;100.00;101167.00;5093117;28;20056;-48
2024/02/17 06:09:27;;;;;;;42.70;26.00;;;;;;;5.29;100.00;101165.28;5093595;28;20040;-48
2024/02/17 06:11:56;;;;;;;43.10;25.30;;;;;;;5.04;100.00;101173.81;5093103;28;20044;-48
2024/02/17 06:14:24;;;;;;;41.95;25.27;;;;;;;5.06;100.00;101171.97;5094180;28;20083;-50
2024/02/17 06:16:53;;;;;;;47.15;25.10;;;;;;;5.06;100.00;101171.97;5094034;28;20136;-51
2024/02/17 06:22:11;;;;;;;42.58;25.05;;;;;;;4.99;100.00;101178.31;5092789;28;20136;-50
2024/02/17 06:24:40;;;;;;;43.33;24.42;;;;;;;4.89;100.00;101182.06;5092495;28;20193;-51
2024/02/17 06:27:10;;;;;;;45.50;25.50;;;;;;;4.86;100.00;101175.06;5092731;28;20052;-52
2024/02/17 06:29:45;;;;;;;45.00;26.27;;;;;;;4.95;100.00;101176.66;5092795;28;20079;-52
2024/02/17 06:32:14;;;;;;;46.65;24.63;;;;;;;5.02;100.00;101183.56;5091311;28;20087;-49
2024/02/17 06:34:48;;;;;;;42.53;24.85;;;;;;;5.20;100.00;101186.66;5092680;28;20132;-49
2024/02/17 06:37:19;;;;;;;42.20;24.00;;;;;;;5.28;100.00;101192.63;5092596;28;20048;-49
2024/02/17 06:39:47;;;;;;;44.22;26.08;;;;;;;5.20;100.00;101191.94;5091494;28;20192;-49
2024/02/17 06:42:17;;;;;;;47.13;26.13;;;;;;;5.53;100.00;101212.31;5092659;28;20044;-51
2024/02/17 06:44:49;;;;;;;45.13;26.75;;;;;;;5.42;100.00;101209.06;5093419;28;20044;-53
2024/02/17 06:47:19;;;;;;;43.70;25.08;;;;;;;5.35;100.00;101210.13;5095985;28;20135;-49
2024/02/17 06:49:47;;;;;;;49.00;26.83;;;;;;;5.32;100.00;101216.34;5092110;28;20048;-49
2024/02/17 06:52:16;;;;;;;46.60;25.40;;;;;;;5.16;100.00;101207.88;5092324;28;20475;-48
2024/02/17 06:54:46;;;;;;;43.15;25.60;;;;;;;5.45;100.00;101209.00;5090610;28;20096;-48
2024/02/17 06:57:17;;;;;;;46.03;26.20;;;;;;;5.75;100.00;101213.53;5092244;28;20044;-51
2024/02/17 06:59:45;;;;;;;44.30;25.77;;;;;;;5.72;100.00;101216.25;5092126;28;20048;-50
2024/02/17 07:02:15;;;;;;;44.05;25.38;;;;;;;5.65;100.00;101217.31;5091479;28;20056;-50
2024/02/17 07:04:46;;;;;;;47.45;25.52;;;;;;;5.68;100.00;101219.88;5091498;28;20076;-51
2024/02/17 07:07:15;;;;;;;47.47;26.90;;;;;;;5.86;100.00;101218.56;5091967;28;20136;-52
2024/02/17 07:09:48;;;;;;;41.85;24.90;;;;;;;5.95;100.00;101221.00;5091663;28;20052;-51
2024/02/17 07:12:16;;;;;;;42.95;25.48;;;;;;;5.75;100.00;101226.75;5091841;28;20044;-49
2024/02/17 07:14:46;;;;;;;44.55;25.38;;;;;;;5.82;100.00;101223.97;5091477;28;20055;-48
2024/02/17 07:17:15;;;;;;;42.45;25.90;;;;;;;6.06;100.00;101226.00;5091647;28;20125;-49
2024/02/17 07:19:45;;;;;;;43.85;24.50;;;;;;;6.12;100.00;101214.41;5091679;28;20040;-51
2024/02/17 07:22:15;;;;;;;43.10;25.70;;;;;;;6.41;100.00;101210.97;5091595;28;20040;-51
2024/02/17 07:24:48;;;;;;;43.47;24.75;;;;;;;6.55;100.00;101206.13;5091670;28;20083;-46
2024/02/17 07:27:19;;;;;;;45.63;25.70;;;;;;;6.69;100.00;101198.66;5091340;28;20048;-48
2024/02/17 07:29:47;;;;;;;45.03;25.52;;;;;;;6.89;100.00;101190.13;5091862;28;20044;-48
2024/02/17 07:32:17;;;;;;;41.72;25.00;;;;;;;6.99;100.00;101201.31;5091608;28;20052;-49
2024/02/17 07:34:46;;;;;;;45.30;25.70;;;;;;;7.02;100.00;101211.81;5090005;28;20040;-49
2024/02/17 07:37:18;;;;;;;42.00;25.23;;;;;;;7.11;100.00;101212.41;5091063;28;20127;-48
2024/02/17 07:39:49;;;;;;;42.15;25.35;;;;;;;7.08;100.00;101212.53;5091031;28;20119;-46
2024/02/17 07:42:18;;;;;;;41.13;25.25;;;;;;;7.16;100.00;101221.13;5091094;28;20044;-50
2024/02/17 07:44:47;;;;;;;42.22;26.67;;;;;;;7.18;100.00;101213.09;5091452;28;20048;-47
2024/02/17 07:47:16;;;;;;;45.50;26.35;;;;;;;7.36;100.00;101215.19;5091206;28;20051;-48
2024/02/17 07:49:44;;;;;;;42.63;26.30;;;;;;;7.33;100.00;101220.56;5090931;28;20119;-49
2024/02/17 07:52:16;;;;;;;44.40;25.85;;;;;;;7.58;99.93;101218.00;5091312;28;20606;-49
2024/02/17 07:54:45;;;;;;;44.10;25.38;;;;;;;7.75;99.92;101214.81;5091057;28;20048;-49
2024/02/17 07:57:16;;;;;;;44.42;25.38;;;;;;;7.96;98.48;101207.91;5090697;28;20069;-49
2024/02/17 07:59:45;;;;;;;46.58;26.58;;;;;;;7.95;95.83;101217.66;5090893;28;20128;-50
2024/02/17 08:02:14;;;;;;;45.00;25.33;;;;;;;7.84;94.77;101225.13;5090812;28;20476;-48
2024/02/17 08:04:43;;;;;;;41.80;24.95;;;;;;;8.01;95.79;101219.25;5090749;28;20556;-47
2024/02/17 08:07:17;;;;;;;42.13;25.90;;;;;;;7.90;95.87;101214.28;5111463;28;20455;-48
2024/02/17 08:09:51;;;;;;;45.97;26.67;;;;;;;8.20;95.00;101223.03;5111161;28;20527;-47
2024/02/17 08:12:20;;;;;;;43.95;25.20;;;;;;;8.39;92.05;101227.69;5111332;28;20044;-49
2024/02/17 08:14:54;;;;;;;40.25;25.15;;;;;;;8.38;91.40;101226.81;5111280;28;20426;-48
2024/02/17 08:17:23;;;;;;;45.35;26.88;;;;;;;8.18;92.89;101234.59;5111307;28;20180;-48
2024/02/17 08:19:52;;;;;;;44.85;27.98;;;;;;;8.26;92.59;101228.09;5111190;28;20043;-50
2024/02/17 08:22:21;;;;;;;49.30;29.05;;;;;;;8.36;91.49;101228.69;5108880;28;20408;-50
2024/02/17 08:24:54;;;;;;;40.95;25.20;;;;;;;8.54;91.58;101229.81;5110789;28;20044;-49
2024/02/17 08:27:23;;;;;;;42.58;24.90;;;;;;;8.57;89.15;101227.03;5111157;28;20059;-49
2024/02/17 08:29:52;;;;;;;43.20;24.27;;;;;;;8.65;87.88;101235.59;5111556;28;20438;-50
2024/02/17 08:32:23;;;;;;;40.70;24.98;;;;;;;8.77;86.78;101231.63;5111112;28;20431;-48
2024/02/17 08:34:54;;;;;;;41.53;24.70;;;;;;;8.85;86.18;101232.19;5109211;28;20058;-48
2024/02/17 08:37:25;;;;;;;40.13;25.25;;;;;;;8.95;86.01;101235.38;5110470;28;20054;-46
2024/02/17 08:39:56;;;;;;;42.10;24.92;;;;;;;9.13;85.23;101232.88;5112079;28;20144;-50
2024/02/17 08:42:28;;;;;;;38.08;24.45;;;;;;;9.29;85.03;101234.97;5120078;28;20047;-50
2024/02/17 08:45:00;;;;;;;43.40;27.65;;;;;;;9.44;84.46;101237.00;5116867;28;20043;-47
2024/02/17 08:47:32;;;;;;;42.27;25.33;;;;;;;9.60;83.72;101235.47;5114792;28;20043;-46
2024/02/17 08:50:00;;;;;;;40.95;23.80;;;;;;;9.77;83.49;101241.91;5114639;28;20043;-48
2024/02/17 08:52:29;;;;;;;36.58;23.05;;;;;;;9.81;82.59;101241.72;5114476;28;20134;-48
2024/02/17 08:54:57;;;;;;;39.90;24.20;;;;;;;9.86;79.83;101247.75;5114488;28;20083;-49
2024/02/17 08:57:26;;;;;;;36.55;23.85;;;;;;;9.95;80.12;101235.81;5114210;28;20062;-47
2024/02/17 08:59:58;;;;;;;37.65;24.05;;;;;;;10.09;80.35;101233.44;5114615;28;20070;-49
2024/02/17 09:02:30;;;;;;;38.13;22.85;;;;;;;10.14;78.14;101234.13;5114675;28;20055;-47
2024/02/17 09:04:59;;;;;;;34.43;22.07;;;;;;;9.87;74.64;101230.81;5114225;28;20090;-48
2024/02/17 09:07:28;;;;;;;37.90;23.23;;;;;;;9.70;76.54;101228.84;5114467;28;20131;-48
2024/02/17 09:09:58;;;;;;;41.17;24.25;;;;;;;9.59;77.68;101220.44;5114385;28;20082;-48
2024/02/17 09:12:27;;;;;;;37.47;22.95;;;;;;;9.85;75.92;101226.50;5114039;27;20048;-47
2024/02/17 09:14:56;;;;;;;37.80;22.38;;;;;;;10.17;74.98;101225.97;5114118;28;20480;-48
2024/02/17 09:17:24;;;;;;;36.38;21.48;;;;;;;10.35;73.85;101220.81;5112815;28;20052;-46
2024/02/17 09:19:54;;;;;;;39.60;22.63;;;;;;;10.37;73.34;101224.28;5114392;28;20404;-49
2024/02/17 09:22:22;;;;;;;38.70;21.40;;;;;;;10.43;71.96;101224.03;5114040;28;20048;-49
2024/02/17 09:24:53;;;;;;;35.95;22.38;;;;;;;10.42;70.69;101222.25;5114483;28;20339;-48
2024/02/17 09:27:24;;;;;;;34.42;21.08;;;;;;;10.62;70.86;101214.25;5114108;28;20625;-47
2024/02/17 09:29:52;;;;;;;37.33;21.88;;;;;;;10.78;69.77;101214.41;5113981;27;20083;-47
2024/02/17 09:32:24;;;;;;;35.03;21.23;;;;;;;10.89;70.22;101210.31;5114136;28;20122;-49
2024/02/17 09:34:55;;;;;;;35.90;20.92;;;;;;;11.06;70.44;101214.00;5112373;28;20054;-48
2024/02/17 09:37:24;;;;;;;32.75;21.13;;;;;;;11.04;68.95;101210.53;5113737;28;20043;-46
2024/02/17 09:39:53;;;;;;;43.72;21.38;;;;;;;10.89;68.48;101210.31;5113696;27;20050;-49
2024/02/17 09:42:22;;;;;;;34.65;22.80;;;;;;;10.65;68.18;101208.78;5113584;28;20417;-49
2024/02/17 09:44:53;;;;;;;33.85;21.23;;;;;;;10.62;69.53;101208.06;5113682;28;20563;-49
2024/02/17 09:47:23;;;;;;;33.05;20.40;;;;;;;10.58;70.08;101212.66;5112193;28;20043;-47
2024/02/17 09:49:52;;;;;;;37.50;22.65;;;;;;;10.74;69.02;101218.16;5113716;28;20500;-50
2024/02/17 09:52:23;;;;;;;36.78;21.65;;;;;;;10.56;71.22;101219.88;5112233;28;20047;-51
2024/02/17 09:54:52;;;;;;;35.45;22.00;;;;;;;10.69;71.68;101220.16;5113346;28;20054;-48
2024/02/17 09:57:20;;;;;;;36.63;21.05;;;;;;;10.84;70.74;101224.81;5113408;28;20085;-50
2024/02/17 09:59:49;;;;;;;34.45;20.83;;;;;;;11.02;67.99;101225.78;5113714;28;20057;-48
2024/02/17 10:02:20;;;;;;;33.08;21.83;;;;;;;11.04;68.91;101221.22;5113370;28;20079;-46
2024/02/17 10:04:57;;;;;;;36.30;21.65;;;;;;;11.15;69.56;101224.25;5110348;27;20496;-49
2024/02/17 10:07:31;;;;;;;34.00;20.88;;;;;;;11.23;67.13;101214.09;5112909;28;20078;-50
2024/02/17 10:10:00;;;;;;;33.47;20.88;;;;;;;11.30;66.93;101218.19;5113203;28;20057;-49
2024/02/17 10:12:31;;;;;;;33.42;19.98;;;;;;;11.50;64.83;101219.03;5112293;28;20370;-51
2024/02/17 10:15:01;;;;;;;29.55;18.73;;;;;;;11.54;65.74;101221.47;5112645;28;20135;-46
2024/02/17 10:17:32;;;;;;;29.40;18.33;;;;;;;11.52;65.52;101214.50;5112616;28;20047;-51
2024/02/17 10:20:02;;;;;;;30.40;18.10;;;;;;;11.58;65.61;101216.84;5111773;28;20048;-50
2024/02/17 10:22:33;;;;;;;30.10;17.58;;;;;;;11.72;63.74;101219.72;5111518;28;20086;-49
2024/02/17 10:25:04;;;;;;;28.35;16.67;;;;;;;11.76;63.06;101215.94;5112190;28;20135;-51
2024/02/17 10:27:36;;;;;;;26.50;16.17;;;;;;;11.94;63.89;101209.69;5112436;28;20501;-54
2024/02/17 10:30:09;;;;;;;28.23;16.50;;;;;;;12.15;63.06;101212.22;5112987;28;20047;-48
2024/02/17 10:32:41;;;;;;;27.48;17.27;;;;;;;12.11;62.49;101216.00;5112573;28;20048;-53
2024/02/17 10:35:10;;;;;;;25.10;15.93;;;;;;;12.33;61.33;101213.94;5112367;28;20088;-49
2024/02/17 10:37:41;;;;;;;25.08;14.38;;;;;;;12.33;60.11;101201.44;5112140;28;20052;-48
2024/02/17 10:40:12;;;;;;;26.52;15.82;;;;;;;12.40;61.24;101201.13;5112338;28;20079;-52
2024/02/17 10:42:43;;;;;;;25.77;15.75;;;;;;;12.57;60.28;101201.09;5112260;28;20051;-50
2024/02/17 10:45:12;;;;;;;26.55;16.45;;;;;;;12.54;59.54;101199.44;5112686;28;20051;-51
2024/02/17 10:47:47;;;;;;;21.80;14.02;;;;;;;12.55;59.95;101201.19;5112552;28;20043;-52
2024/02/17 10:50:20;;;;;;;21.40;13.82;;;;;;;12.58;60.37;101201.00;5113709;28;20044;-51
2024/02/17 10:52:52;;;;;;;21.15;12.98;;;;;;;12.68;60.51;101192.50;5113231;28;20362;-52
2024/02/17 10:55:25;;;;;;;17.63;11.43;;;;;;;12.64;59.79;101193.56;5112328;28;20084;-50
2024/02/17 10:58:03;;;;;;;21.30;13.07;;;;;;;12.66;60.05;101197.94;5112397;28;20052;-48
2024/02/17 11:00:36;;;;;;;20.75;12.38;;;;;;;12.74;59.92;101195.72;5110839;28;20050;-50
2024/02/17 11:03:13;;;;;;;20.37;12.17;;;;;;;12.60;60.33;101193.75;5111817;28;20188;-50
2024/02/17 11:05:55;;;;;;;20.55;12.70;;;;;;;12.72;58.18;101196.72;5112195;28;20051;-50
2024/02/17 11:08:25;;;;;;;17.00;10.88;;;;;;;12.77;58.60;101189.31;5112193;28;20196;-50
2024/02/17 11:10:56;;;;;;;19.40;11.07;;;;;;;12.78;58.70;101196.41;5111713;28;20063;-48
2024/02/17 11:13:27;;;;;;;20.17;11.57;;;;;;;12.98;57.93;101188.13;5112009;28;20075;-49
2024/02/17 11:15:59;;;;;;;18.73;10.88;;;;;;;13.05;57.48;101197.56;5112128;28;20047;-49
2024/02/17 11:18:29;;;;;;;21.33;11.70;;;;;;;13.25;56.60;101187.56;5111816;28;20043;-49
2024/02/17 11:20:57;;;;;;;18.98;11.80;;;;;;;12.99;57.10;101197.88;5111932;27;20043;-51
2024/02/17 11:23:42;;;;;;;18.25;12.02;;;;;;;12.98;56.56;101193.47;5112034;28;20047;-51
2024/02/17 11:26:17;;;;;;;20.02;12.38;;;;;;;13.06;56.85;101185.91;5112061;28;20050;-51